createdAt,value
2018-04-28T00:01:08.662Z,55.20
2018-04-28T00:03:36.936Z,55.30
2018-04-28T00:06:05.220Z,55.50
2018-04-28T00:08:48.488Z,55.90
2018-04-28T00:11:16.746Z,55.90
2018-04-28T00:13:44.986Z,55.90
2018-04-28T00:16:15.178Z,56.00
2018-04-28T00:18:49.056Z,56.10
2018-04-28T00:21:17.317Z,56.00
2018-04-28T00:23:46.290Z,56.00
2018-04-28T00:26:14.540Z,56.00
2018-04-28T00:28:49.332Z,56.10
2018-04-28T00:31:20.428Z,56.10
2018-04-28T00:33:49.614Z,56.20
2018-04-28T00:39:14.176Z,56.40
2018-04-28T00:41:42.450Z,56.30
2018-04-28T00:44:15.252Z,56.40
2018-04-28T00:46:46.364Z,56.30
2018-04-28T00:49:18.064Z,56.20
2018-04-28T00:51:51.782Z,56.80
2018-04-28T00:54:27.458Z,57.10
2018-04-28T00:57:22.580Z,57.00
2018-04-28T00:59:54.347Z,57.40
2018-04-28T01:02:23.315Z,57.70
2018-04-28T01:04:51.611Z,57.80
2018-04-28T01:07:23.590Z,57.70
2018-04-28T01:10:00.720Z,57.70
2018-04-28T01:12:29.703Z,57.70
2018-04-28T01:14:59.635Z,58.00
2018-04-28T01:17:27.895Z,58.00
2018-04-28T01:19:59.756Z,58.40
2018-04-28T01:22:30.147Z,58.90
2018-04-28T01:25:00.115Z,58.80
2018-04-28T01:27:41.811Z,59.20
2018-04-28T01:30:11.678Z,59.30
2018-04-28T01:32:47.841Z,59.50
2018-04-28T01:35:16.091Z,59.70
2018-04-28T01:37:47.099Z,60.20
2018-04-28T01:40:15.360Z,60.40
2018-04-28T01:42:55.094Z,60.40
2018-04-28T01:45:24.916Z,60.10
2018-04-28T01:48:18.650Z,59.80
2018-04-28T01:50:53.435Z,59.80
2018-04-28T01:53:21.703Z,59.80
2018-04-28T01:59:07.157Z,60.00
2018-04-28T02:01:36.262Z,59.80
2018-04-28T02:04:21.188Z,60.00
2018-04-28T02:07:05.229Z,60.30
2018-04-28T02:09:43.398Z,60.30
2018-04-28T02:12:12.411Z,60.10
2018-04-28T02:15:03.275Z,60.00
2018-04-28T02:17:47.320Z,59.80
2018-04-28T02:20:35.187Z,59.60
2018-04-28T02:23:16.257Z,59.40
2018-04-28T02:25:44.522Z,59.40
2018-04-28T02:28:20.135Z,59.40
2018-04-28T02:30:52.836Z,59.30
2018-04-28T02:33:32.376Z,59.20
2018-04-28T02:36:15.528Z,59.00
2018-04-28T02:38:45.319Z,58.90
2018-04-28T02:41:14.951Z,58.90
2018-04-28T02:43:50.697Z,59.40
2018-04-28T02:46:20.476Z,59.60
2018-04-28T02:49:02.175Z,59.60
2018-04-28T02:51:46.112Z,59.80
2018-04-28T02:54:27.626Z,60.20
2018-04-28T02:57:10.275Z,60.20
2018-04-28T03:00:09.073Z,60.20
2018-04-28T03:02:38.236Z,60.30
2018-04-28T03:05:08.805Z,60.60
2018-04-28T03:07:37.997Z,60.60
2018-04-28T03:10:06.272Z,60.60
2018-04-28T03:12:34.561Z,60.90
2018-04-28T03:15:06.200Z,60.90
2018-04-28T03:17:44.366Z,61.00
2018-04-28T03:20:16.251Z,61.50
2018-04-28T03:22:48.619Z,61.40
2018-04-28T03:25:29.505Z,61.30
2018-04-28T03:28:01.465Z,61.30
2018-04-28T03:30:34.395Z,61.70
2018-04-28T03:33:10.078Z,61.60
2018-04-28T03:35:46.820Z,61.40
2018-04-28T03:38:15.881Z,61.90
2018-04-28T03:40:45.079Z,61.70
2018-04-28T03:43:28.227Z,61.60
2018-04-28T03:46:06.098Z,61.70
2018-04-28T03:51:38.251Z,60.00
2018-04-28T03:54:08.238Z,60.20
2018-04-28T03:56:38.244Z,60.20
2018-04-28T03:59:18.347Z,60.30
2018-04-28T04:01:59.114Z,60.70
2018-04-28T04:07:33.292Z,60.20
2018-04-28T04:10:04.407Z,60.50
2018-04-28T04:13:00.250Z,60.40
2018-04-28T04:18:38.854Z,60.70
2018-04-28T04:21:14.584Z,61.10
2018-04-28T04:24:00.444Z,61.10
2018-04-28T04:26:36.217Z,61.50
2018-04-28T04:29:18.066Z,61.80
2018-04-28T04:31:52.273Z,62.30
2018-04-28T04:37:42.724Z,63.30
2018-04-28T04:40:20.530Z,63.30
2018-04-28T04:43:04.729Z,63.10
2018-04-28T04:45:37.664Z,63.90
2018-04-28T04:48:08.795Z,63.90
2018-04-28T04:50:43.447Z,64.50
2018-04-28T04:53:31.261Z,63.90
2018-04-28T04:56:21.954Z,63.30
2018-04-28T04:59:11.801Z,63.00
2018-04-28T05:01:56.474Z,62.20
2018-04-28T05:04:24.751Z,61.80
2018-04-28T05:07:11.561Z,61.00
2018-04-28T05:09:57.498Z,61.10
2018-04-28T05:12:45.242Z,61.10
2018-04-28T05:15:25.200Z,61.80
2018-04-28T05:18:01.159Z,62.10
2018-04-28T05:20:40.216Z,62.40
2018-04-28T05:23:24.090Z,62.30
2018-04-28T05:25:58.860Z,62.30
2018-04-28T05:28:38.908Z,62.20
2018-04-28T05:31:13.729Z,62.20
2018-04-28T05:37:05.273Z,60.50
2018-04-28T05:42:55.428Z,60.20
2018-04-28T05:45:35.738Z,60.30
2018-04-28T05:48:15.890Z,59.90
2018-04-28T05:50:56.399Z,59.60
2018-04-28T05:53:36.247Z,59.90
2018-04-28T05:56:25.178Z,59.70
2018-04-28T05:59:13.878Z,59.60
2018-04-28T06:01:47.735Z,59.90
2018-04-28T06:04:27.777Z,60.10
2018-04-28T06:07:10.925Z,60.70
2018-04-28T06:09:52.717Z,60.00
2018-04-28T06:12:28.510Z,60.00
2018-04-28T06:18:26.979Z,61.10
2018-04-28T06:20:56.055Z,60.90
2018-04-28T06:23:25.196Z,60.60
2018-04-28T06:25:53.562Z,60.60
2018-04-28T06:28:21.784Z,60.40
2018-04-28T06:30:50.023Z,60.50
2018-04-28T06:33:18.304Z,60.60
2018-04-28T06:35:46.569Z,60.50
2018-04-28T06:38:14.865Z,60.50
2018-04-28T06:40:43.102Z,60.60
2018-04-28T06:43:13.034Z,60.50
2018-04-28T06:45:41.301Z,60.40
2018-04-28T06:48:10.318Z,60.50
2018-04-28T06:50:38.570Z,60.40
2018-04-28T06:53:06.848Z,60.50
2018-04-28T06:55:35.861Z,60.70
2018-04-28T06:58:04.108Z,62.00
2018-04-28T07:00:33.150Z,64.30
2018-04-28T07:03:01.406Z,64.30
2018-04-28T07:05:29.683Z,65.60
2018-04-28T07:07:58.198Z,66.30
2018-04-28T07:10:26.515Z,68.00
2018-04-28T07:12:54.711Z,67.90
2018-04-28T07:15:22.986Z,67.70
2018-04-28T07:17:51.267Z,67.90
2018-04-28T07:20:19.545Z,69.70
2018-04-28T07:22:48.732Z,68.50
2018-04-28T07:25:17.001Z,67.90
2018-04-28T07:27:45.258Z,68.10
2018-04-28T07:30:14.305Z,67.10
2018-04-28T07:32:42.599Z,67.10
2018-04-28T07:35:10.883Z,66.60
2018-04-28T07:37:41.399Z,67.30
2018-04-28T07:40:09.669Z,66.30
2018-04-28T07:42:38.065Z,67.10
2018-04-28T07:45:06.289Z,66.90
2018-04-28T07:47:34.577Z,67.70
2018-04-28T07:50:02.822Z,67.50
2018-04-28T07:52:33.006Z,55.80
2018-04-28T07:55:01.560Z,55.80
2018-04-28T07:57:29.821Z,53.20
2018-04-28T07:59:58.913Z,49.60
2018-04-28T08:02:27.239Z,49.50
2018-04-28T08:04:55.656Z,46.60
2018-04-28T08:07:24.774Z,43.80
2018-04-28T08:09:53.056Z,43.80
2018-04-28T08:12:21.314Z,45.70
2018-04-28T08:14:49.593Z,48.80
2018-04-28T08:17:17.851Z,51.20
2018-04-28T08:19:46.154Z,53.40
2018-04-28T08:22:14.434Z,55.90
2018-04-28T08:24:42.719Z,56.10
2018-04-28T08:27:10.968Z,55.10
2018-04-28T08:29:40.030Z,55.60
2018-04-28T08:32:08.407Z,55.60
2018-04-28T08:34:36.819Z,56.20
2018-04-28T08:37:05.902Z,59.50
2018-04-28T08:39:34.152Z,59.40
2018-04-28T08:42:02.433Z,59.60
2018-04-28T08:44:30.722Z,61.10
2018-04-28T08:46:58.986Z,61.40
2018-04-28T08:49:27.221Z,61.60
2018-04-28T08:51:55.612Z,62.30
2018-04-28T08:54:23.863Z,63.10
2018-04-28T08:56:52.163Z,64.40
2018-04-28T08:59:20.699Z,65.30
2018-04-28T09:01:49.711Z,65.30
2018-04-28T09:04:18.005Z,65.20
2018-04-28T09:06:47.150Z,64.50
2018-04-28T09:09:15.422Z,64.20
2018-04-28T09:11:43.703Z,64.30
2018-04-28T09:14:11.975Z,64.50
2018-04-28T09:16:41.308Z,63.90
2018-04-28T09:19:09.590Z,63.40
2018-04-28T09:21:38.614Z,63.20
2018-04-28T09:24:06.881Z,63.10
2018-04-28T09:26:35.153Z,63.30
2018-04-28T09:29:04.450Z,63.80
2018-04-28T09:31:32.743Z,63.70
2018-04-28T09:34:00.988Z,63.70
2018-04-28T09:36:30.082Z,66.10
2018-04-28T09:38:58.335Z,66.20
2018-04-28T09:41:26.637Z,67.00
2018-04-28T09:43:54.909Z,67.70
2018-04-28T09:46:23.997Z,69.60
2018-04-28T09:48:52.267Z,69.60
2018-04-28T09:51:20.558Z,69.00
2018-04-28T09:53:48.842Z,70.50
2018-04-28T09:56:17.157Z,69.00
2018-04-28T09:58:45.418Z,67.60
2018-04-28T10:01:19.449Z,69.00
2018-04-28T10:03:54.327Z,70.00
2018-04-28T10:06:22.622Z,70.00
2018-04-28T10:08:50.940Z,71.10
2018-04-28T10:11:19.177Z,70.10
2018-04-28T10:13:47.461Z,70.10
2018-04-28T10:16:15.724Z,69.20
2018-04-28T10:18:44.003Z,69.00
2018-04-28T10:21:12.260Z,67.70
2018-04-28T10:23:40.527Z,66.80
2018-04-28T10:26:08.806Z,66.30
2018-04-28T10:28:37.856Z,65.40
2018-04-28T10:31:06.201Z,65.40
2018-04-28T10:33:34.531Z,64.20
2018-04-28T10:36:03.907Z,63.60
2018-04-28T10:38:32.214Z,63.00
2018-04-28T10:41:00.472Z,63.20
2018-04-28T10:43:28.749Z,63.00
2018-04-28T10:45:57.124Z,61.70
2018-04-28T10:48:25.378Z,61.60
2018-04-28T10:50:53.641Z,60.70
2018-04-28T10:53:21.890Z,60.00
2018-04-28T10:55:50.940Z,61.20
2018-04-28T10:58:19.175Z,61.10
2018-04-28T11:00:47.434Z,61.10
2018-04-28T11:03:16.478Z,60.20
2018-04-28T11:05:44.731Z,60.10
2018-04-28T11:08:12.992Z,59.90
2018-04-28T11:10:41.273Z,59.30
2018-04-28T11:13:09.596Z,59.10
2018-04-28T11:15:37.853Z,58.60
2018-04-28T11:18:06.172Z,58.50
2018-04-28T11:20:35.172Z,58.20
2018-04-28T11:23:03.474Z,58.20
2018-04-28T11:25:31.778Z,58.00
2018-04-28T11:28:00.762Z,58.50
2018-04-28T11:30:29.012Z,58.50
2018-04-28T11:32:57.307Z,58.50
2018-04-28T11:35:25.579Z,58.50
2018-04-28T11:37:53.824Z,58.40
2018-04-28T11:40:22.864Z,58.60
2018-04-28T11:42:51.114Z,58.70
2018-04-28T11:45:19.383Z,58.50
2018-04-28T11:47:48.416Z,58.00
2018-04-28T11:50:16.677Z,58.00
2018-04-28T11:52:44.935Z,58.00
2018-04-28T11:55:13.222Z,58.00
2018-04-28T11:57:41.566Z,58.20
2018-04-28T12:00:10.599Z,56.90
2018-04-28T12:02:38.863Z,57.40
2018-04-28T12:05:07.201Z,57.30
2018-04-28T12:07:35.476Z,57.20
2018-04-28T12:10:03.810Z,57.30
2018-04-28T12:12:32.126Z,56.90
2018-04-28T12:15:01.091Z,56.30
2018-04-28T12:17:29.333Z,56.30
2018-04-28T12:19:58.358Z,57.00
2018-04-28T12:22:26.835Z,57.00
2018-04-28T12:24:55.118Z,57.10
2018-04-28T12:27:23.403Z,57.80
2018-04-28T12:29:51.715Z,57.30
2018-04-28T12:32:19.934Z,57.00
2018-04-28T12:34:48.238Z,57.10
2018-04-28T12:37:16.485Z,57.30
2018-04-28T12:39:44.741Z,57.50
2018-04-28T12:42:13.017Z,57.20
2018-04-28T12:44:42.055Z,56.80
2018-04-28T12:47:10.310Z,56.80
2018-04-28T12:49:38.559Z,56.40
2018-04-28T12:52:07.620Z,56.60
2018-04-28T12:54:35.898Z,56.50
2018-04-28T12:57:04.172Z,56.40
2018-04-28T12:59:32.662Z,56.60
2018-04-28T13:02:00.948Z,56.10
2018-04-28T13:04:29.202Z,55.70
2018-04-28T13:06:58.210Z,55.70
2018-04-28T13:09:26.487Z,55.90
2018-04-28T13:11:54.721Z,55.60
2018-04-28T13:14:22.978Z,55.90
2018-04-28T13:16:51.256Z,56.10
2018-04-28T13:19:19.562Z,56.20
2018-04-28T13:21:47.841Z,55.70
2018-04-28T13:24:16.098Z,56.10
2018-04-28T13:26:44.365Z,55.90
2018-04-28T13:29:12.702Z,56.10
2018-04-28T13:31:41.638Z,55.30
2018-04-28T13:34:09.894Z,55.30
2018-04-28T13:36:38.534Z,55.30
2018-04-28T13:39:06.783Z,55.30
2018-04-28T13:41:35.450Z,55.80
2018-04-28T13:44:03.702Z,56.00
2018-04-28T13:46:32.970Z,55.60
2018-04-28T13:49:01.235Z,55.50
2018-04-28T13:51:29.494Z,55.70
2018-04-28T13:53:57.750Z,55.90
2018-04-28T13:56:26.010Z,56.00
2018-04-28T13:58:55.079Z,55.20
2018-04-28T14:01:23.394Z,55.20
2018-04-28T14:03:52.422Z,54.80
2018-04-28T14:06:20.726Z,54.80
2018-04-28T14:08:48.974Z,54.80
2018-04-28T14:11:17.243Z,54.70
2018-04-28T14:13:45.512Z,55.00
2018-04-28T14:16:13.783Z,55.30
2018-04-28T14:18:42.158Z,55.50
2018-04-28T14:21:10.338Z,55.70
2018-04-28T14:23:38.619Z,55.70
2018-04-28T14:26:06.875Z,55.60
2018-04-28T14:28:35.134Z,55.20
2018-04-28T14:31:04.181Z,54.50
2018-04-28T14:33:32.435Z,54.50
2018-04-28T14:36:00.679Z,54.20
2018-04-28T14:38:29.711Z,53.80
2018-04-28T14:40:58.002Z,53.80
2018-04-28T14:43:26.262Z,54.10
2018-04-28T14:45:54.575Z,54.40
2018-04-28T14:48:23.053Z,54.60
2018-04-28T14:50:51.306Z,54.30
2018-04-28T14:53:19.583Z,54.10
2018-04-28T14:55:47.866Z,54.30
2018-04-28T14:58:16.248Z,54.50
2018-04-28T15:00:44.438Z,54.80
2018-04-28T15:03:12.726Z,54.80
2018-04-28T15:05:40.995Z,55.10
2018-04-28T15:08:10.034Z,55.00
2018-04-28T15:10:39.071Z,55.30
2018-04-28T15:13:07.310Z,55.30
2018-04-28T15:15:36.427Z,55.50
2018-04-28T15:18:04.695Z,55.20
2018-04-28T15:20:33.663Z,54.90
2018-04-28T15:23:02.256Z,54.80
2018-04-28T15:25:30.895Z,54.80
2018-04-28T15:27:59.162Z,55.10
2018-04-28T15:30:28.210Z,55.30
2018-04-28T15:32:56.475Z,55.40
2018-04-28T15:35:24.753Z,55.40
2018-04-28T15:37:53.803Z,56.00
2018-04-28T15:40:22.063Z,56.00
2018-04-28T15:42:50.756Z,56.20
2018-04-28T15:45:19.018Z,56.80
2018-04-28T15:47:47.293Z,57.00
2018-04-28T15:50:15.545Z,57.20
2018-04-28T15:52:43.810Z,57.40
2018-04-28T15:55:12.076Z,57.60
2018-04-28T15:57:41.157Z,58.00
2018-04-28T16:00:10.179Z,58.00
2018-04-28T16:02:38.437Z,58.00
2018-04-28T16:05:06.710Z,58.10
2018-04-28T16:07:34.964Z,58.10
2018-04-28T16:10:04.010Z,58.10
2018-04-28T16:12:32.284Z,58.40
2018-04-28T16:15:01.297Z,57.90
2018-04-28T16:17:29.607Z,57.90
2018-04-28T16:19:57.871Z,58.00
2018-04-28T16:22:26.242Z,58.00
2018-04-28T16:24:54.493Z,58.10
2018-04-28T16:27:22.869Z,58.10
2018-04-28T16:29:51.108Z,57.90
2018-04-28T16:32:19.361Z,57.60
2018-04-28T16:34:47.633Z,58.00
2018-04-28T16:37:15.882Z,58.10
2018-04-28T16:39:44.163Z,58.20
2018-04-28T16:42:12.418Z,58.20
2018-04-28T16:44:40.669Z,59.00
2018-04-28T16:47:09.714Z,58.60
2018-04-28T16:49:37.967Z,58.50
2018-04-28T16:52:06.248Z,58.80
2018-04-28T16:54:35.484Z,58.80
2018-04-28T16:57:03.736Z,59.10
2018-04-28T16:59:31.991Z,58.60
2018-04-28T17:02:00.269Z,58.70
2018-04-28T17:04:29.407Z,58.70
2018-04-28T17:06:57.631Z,58.70
2018-04-28T17:09:25.926Z,58.50
2018-04-28T17:11:54.194Z,58.60
2018-04-28T17:14:22.476Z,58.50
2018-04-28T17:16:50.724Z,58.60
2018-04-28T17:19:19.749Z,58.90
2018-04-28T17:21:48.008Z,58.80
2018-04-28T17:24:16.284Z,58.70
2018-04-28T17:26:44.546Z,59.10
2018-04-28T17:29:13.582Z,59.60
2018-04-28T17:31:42.774Z,59.50
2018-04-28T17:34:11.014Z,59.60
2018-04-28T17:36:40.920Z,59.80
2018-04-28T17:39:10.653Z,59.90
2018-04-28T17:41:39.614Z,59.80
2018-04-28T17:44:07.918Z,59.80
2018-04-28T17:46:36.190Z,59.70
2018-04-28T17:49:04.473Z,59.60
2018-04-28T17:51:32.750Z,59.70
2018-04-28T17:54:01.062Z,59.20
2018-04-28T17:56:29.368Z,58.70
2018-04-28T17:58:57.625Z,58.00
2018-04-28T18:01:25.883Z,58.80
2018-04-28T18:03:55.112Z,58.10
2018-04-28T18:06:23.372Z,58.00
2018-04-28T18:08:51.652Z,57.40
2018-04-28T18:11:19.962Z,56.80
2018-04-28T18:13:49.272Z,56.60
2018-04-28T18:16:17.504Z,56.90
2018-04-28T18:18:45.781Z,57.00
2018-04-28T18:21:14.030Z,56.80
2018-04-28T18:23:42.305Z,56.60
2018-04-28T18:26:10.630Z,56.90
2018-04-28T18:28:38.857Z,56.80
2018-04-28T18:31:07.146Z,57.30
2018-04-28T18:33:35.436Z,56.60
2018-04-28T18:36:03.694Z,56.80
2018-04-28T18:38:31.998Z,56.60
2018-04-28T18:41:00.251Z,56.80
2018-04-28T18:43:28.620Z,56.90
2018-04-28T18:45:56.883Z,57.20
2018-04-28T18:48:25.142Z,57.10
2018-04-28T18:50:54.178Z,57.40
2018-04-28T18:53:23.435Z,57.40
2018-04-28T18:55:52.522Z,57.40
2018-04-28T18:58:21.565Z,57.50
2018-04-28T19:00:49.839Z,57.50
2018-04-28T19:03:18.102Z,57.50
2018-04-28T19:05:46.404Z,58.40
2018-04-28T19:08:14.641Z,57.80
2018-04-28T19:10:42.910Z,57.60
2018-04-28T19:13:11.303Z,57.90
2018-04-28T19:15:39.568Z,58.20
2018-04-28T19:18:08.591Z,58.20
2018-04-28T19:20:36.857Z,58.10
2018-04-28T19:23:05.125Z,58.10
2018-04-28T19:25:33.396Z,58.20
2018-04-28T19:28:01.662Z,58.60
2018-04-28T19:30:29.971Z,58.50
2018-04-28T19:32:58.225Z,58.40
2018-04-28T19:35:27.253Z,57.90
2018-04-28T19:37:55.507Z,57.90
2018-04-28T19:40:23.777Z,58.20
2018-04-28T19:42:52.139Z,58.20
2018-04-28T19:45:20.317Z,57.80
2018-04-28T19:47:49.381Z,57.90
2018-04-28T19:50:17.635Z,57.90
2018-04-28T19:52:45.880Z,58.20
2018-04-28T19:55:14.134Z,57.80
2018-04-28T19:57:42.370Z,58.20
2018-04-28T20:00:10.637Z,58.00
2018-04-28T20:02:38.877Z,58.10
2018-04-28T20:05:07.150Z,58.00
2018-04-28T20:07:35.390Z,57.70
2018-04-28T20:10:03.752Z,57.60
2018-04-28T20:12:33.060Z,58.10
2018-04-28T20:15:01.327Z,58.10
2018-04-28T20:17:29.601Z,58.10
2018-04-28T20:19:57.887Z,58.00
2018-04-28T20:22:37.886Z,57.90
2018-04-28T20:25:18.182Z,58.50
2018-04-28T20:27:46.451Z,58.40
2018-04-28T20:30:14.780Z,58.50
2018-04-28T20:32:42.965Z,58.60
2018-04-28T20:35:11.229Z,58.30
2018-04-28T20:37:40.267Z,58.10
2018-04-28T20:40:08.546Z,58.10
2018-04-28T20:42:37.229Z,58.40
2018-04-28T20:45:05.508Z,58.70
2018-04-28T20:47:33.897Z,58.60
2018-04-28T20:50:02.170Z,58.70
2018-04-28T20:52:30.469Z,58.90
2018-04-28T20:54:58.724Z,59.20
2018-04-28T20:57:26.988Z,59.10
2018-04-28T20:59:55.297Z,59.20
2018-04-28T21:02:23.539Z,59.30
2018-04-28T21:04:51.793Z,59.60
2018-04-28T21:07:20.038Z,59.60
2018-04-28T21:09:48.331Z,60.10
2018-04-28T21:12:17.331Z,60.00
2018-04-28T21:14:45.606Z,60.00
2018-04-28T21:17:13.874Z,60.30
2018-04-28T21:19:42.919Z,60.50
2018-04-28T21:22:11.168Z,60.40
2018-04-28T21:24:39.520Z,60.50
2018-04-28T21:27:07.712Z,60.20
2018-04-28T21:29:36.218Z,59.70
2018-04-28T21:32:04.493Z,59.50
2018-04-28T21:34:32.762Z,59.70
2018-04-28T21:37:01.146Z,59.00
2018-04-28T21:39:29.418Z,59.00
2018-04-28T21:41:57.741Z,59.30
2018-04-28T21:44:26.010Z,59.40
2018-04-28T21:46:54.274Z,59.20
2018-04-28T21:49:22.548Z,58.80
2018-04-28T21:51:50.804Z,59.00
2018-04-28T21:54:19.062Z,59.00
2018-04-28T21:56:47.775Z,58.90
2018-04-28T21:59:16.026Z,58.70
2018-04-28T22:01:44.322Z,58.90
2018-04-28T22:04:12.581Z,59.00
2018-04-28T22:06:40.846Z,59.20
2018-04-28T22:09:09.086Z,59.50
2018-04-28T22:11:37.384Z,59.40
2018-04-28T22:14:06.404Z,60.30
2018-04-28T22:16:34.677Z,60.30
2018-04-28T22:19:02.940Z,60.50
2018-04-28T22:21:31.203Z,60.60
2018-04-28T22:23:59.481Z,60.70
2018-04-28T22:26:27.728Z,60.30
2018-04-28T22:28:56.003Z,60.30
2018-04-28T22:31:24.296Z,60.20
2018-04-28T22:33:52.549Z,59.90
2018-04-28T22:36:20.842Z,60.10
2018-04-28T22:38:49.884Z,60.30
2018-04-28T22:41:18.178Z,60.30
2018-04-28T22:43:47.299Z,60.20
2018-04-28T22:46:15.585Z,60.30
2018-04-28T22:48:43.851Z,60.10
2018-04-28T22:51:12.129Z,60.00
2018-04-28T22:53:40.412Z,60.30
2018-04-28T22:56:08.685Z,60.20
2018-04-28T22:58:36.935Z,60.00
2018-04-28T23:01:05.193Z,60.10
2018-04-28T23:03:33.482Z,60.00
2018-04-28T23:06:01.713Z,59.90
2018-04-28T23:08:30.774Z,60.00
2018-04-28T23:10:59.025Z,60.00
2018-04-28T23:13:27.279Z,60.00
2018-04-28T23:15:55.534Z,59.90
2018-04-28T23:18:24.558Z,59.80
2018-04-28T23:20:52.828Z,59.80
2018-04-28T23:23:21.097Z,59.90
2018-04-28T23:25:49.384Z,60.00
2018-04-28T23:28:17.710Z,59.90
2018-04-28T23:30:45.968Z,60.20
2018-04-28T23:33:14.242Z,59.70
2018-04-28T23:35:42.529Z,59.80
2018-04-28T23:38:10.829Z,60.00
2018-04-28T23:40:39.851Z,64.20
2018-04-28T23:43:08.109Z,64.20
2018-04-28T23:45:37.171Z,73.40
2018-04-28T23:48:05.434Z,73.50
2018-04-28T23:50:33.690Z,79.30
2018-04-28T23:53:01.958Z,84.00
2018-04-28T23:55:30.229Z,86.50
2018-04-28T23:57:58.489Z,85.40
